Time;durP1;ratioP1;P1;durP2;ratioP2;P2;SDS_P1;SDS_P2;PMS_P1;PMS_P2;Temp;Humidity;BMP_temperature;BMP_pressure;BME280_temperature;BME280_humidity;BME280_pressure;Samples;Min_cycle;Max_cycle;Signal;HPM_P1;HPM_P2
2023/08/28 00:00:37;;;;;;;9.35;3.30;;;12.60;99.90;;;;;;5047922;28;20033;-58
2023/08/28 00:03:03;;;;;;;3.38;2.90;;;12.60;99.90;;;;;;5044509;28;20025;-55
2023/08/28 00:05:30;;;;;;;5.25;2.95;;;12.60;99.90;;;;;;5027031;28;20114;-58
2023/08/28 00:07:55;;;;;;;7.00;3.92;;;12.70;99.90;;;;;;5030442;28;20116;-56
2023/08/28 00:10:21;;;;;;;7.63;3.25;;;12.80;99.90;;;;;;5045264;28;20116;-59
2023/08/28 00:12:46;;;;;;;7.45;3.63;;;12.80;99.90;;;;;;5041215;28;20057;-55
2023/08/28 00:15:12;;;;;;;10.82;3.83;;;12.80;99.90;;;;;;5042032;28;20285;-59
2023/08/28 00:17:38;;;;;;;9.45;3.42;;;12.80;99.90;;;;;;5044174;28;20104;-57
2023/08/28 00:20:07;;;;;;;9.82;3.75;;;12.80;99.90;;;;;;5045888;28;20025;-58
2023/08/28 00:22:34;;;;;;;5.93;3.65;;;12.90;99.90;;;;;;5045692;28;20111;-58
2023/08/28 00:24:59;;;;;;;7.30;3.65;;;12.90;99.90;;;;;;5042790;28;20026;-57
2023/08/28 00:27:25;;;;;;;4.35;2.45;;;12.90;99.90;;;;;;5041769;28;20033;-56
2023/08/28 00:29:50;;;;;;;5.30;3.03;;;12.80;99.90;;;;;;5040137;28;20079;-55
2023/08/28 00:32:16;;;;;;;5.47;3.60;;;12.70;99.90;;;;;;5042039;28;20030;-57
2023/08/28 00:34:41;;;;;;;4.85;3.50;;;12.70;99.90;;;;;;5037076;28;20029;-57
2023/08/28 00:37:07;;;;;;;8.30;3.40;;;12.70;99.90;;;;;;5043430;28;20412;-60
2023/08/28 00:39:32;;;;;;;5.80;2.83;;;12.60;99.90;;;;;;5044482;28;20033;-58
2023/08/28 00:41:58;;;;;;;8.90;3.40;;;12.60;99.90;;;;;;5041051;28;20032;-58
2023/08/28 00:44:24;;;;;;;2.95;2.55;;;12.60;99.90;;;;;;5045923;28;20033;-60
2023/08/28 00:46:49;;;;;;;7.88;3.33;;;12.50;99.90;;;;;;5037054;28;20021;-60
2023/08/28 00:49:15;;;;;;;9.48;3.22;;;12.50;99.90;;;;;;5033329;28;20037;-57
2023/08/28 00:51:41;;;;;;;4.05;3.30;;;12.50;99.90;;;;;;5030223;28;20033;-58
2023/08/28 00:54:07;;;;;;;5.47;3.40;;;12.40;99.90;;;;;;5043476;28;20104;-59
2023/08/28 00:56:33;;;;;;;8.23;3.38;;;12.40;99.90;;;;;;5039398;28;20040;-60
2023/08/28 00:58:59;;;;;;;5.78;3.30;;;12.40;99.90;;;;;;5046712;28;20491;-60
2023/08/28 01:01:25;;;;;;;6.00;3.78;;;12.40;99.90;;;;;;5038091;28;20036;-59
2023/08/28 01:03:50;;;;;;;9.70;3.50;;;12.40;99.90;;;;;;5034462;28;20041;-60
2023/08/28 01:06:30;;;;;;;4.65;3.75;;;12.40;99.90;;;;;;5031201;28;20032;-58
2023/08/28 01:09:16;;;;;;;4.38;3.47;;;12.40;99.90;;;;;;5038906;28;20028;-58
2023/08/28 01:11:53;;;;;;;15.20;4.03;;;12.30;99.90;;;;;;5032979;28;20025;-58
2023/08/28 01:14:25;;;;;;;5.10;3.35;;;12.20;99.90;;;;;;5031535;28;20116;-59
2023/08/28 01:16:54;;;;;;;6.82;3.50;;;12.30;99.90;;;;;;5044379;28;20025;-55
2023/08/28 01:19:33;;;;;;;7.38;3.88;;;12.30;99.90;;;;;;5034437;28;20026;-58
2023/08/28 01:22:35;;;;;;;6.18;3.13;;;12.30;99.90;;;;;;5041776;28;20028;-56
2023/08/28 01:25:12;;;;;;;3.95;3.08;;;12.20;99.90;;;;;;5038369;28;20040;-57
2023/08/28 01:27:41;;;;;;;7.03;3.50;;;12.20;99.90;;;;;;5034867;28;20443;-57
2023/08/28 01:30:09;;;;;;;4.88;3.63;;;12.20;99.90;;;;;;5037478;28;20104;-56
2023/08/28 01:32:35;;;;;;;6.97;3.38;;;12.20;99.90;;;;;;5043766;28;20024;-59
2023/08/28 01:35:02;;;;;;;9.63;4.38;;;12.20;99.90;;;;;;5028695;28;22098;-60
2023/08/28 01:37:39;;;;;;;7.07;3.58;;;12.10;99.90;;;;;;5038142;28;20033;-56
2023/08/28 01:40:07;;;;;;;24.10;7.30;;;12.10;99.90;;;;;;5037061;28;20032;-60
2023/08/28 01:42:33;;;;;;;5.57;3.92;;;12.10;99.90;;;;;;5033012;28;20041;-60
2023/08/28 01:45:00;;;;;;;5.50;3.92;;;12.10;99.90;;;;;;5023028;28;20025;-60
2023/08/28 01:47:27;;;;;;;6.68;4.40;;;12.10;99.90;;;;;;5033664;28;20143;-58
2023/08/28 01:49:53;;;;;;;7.43;4.00;;;12.00;99.90;;;;;;5033347;28;20083;-55
2023/08/28 01:52:19;;;;;;;6.50;3.70;;;12.00;99.90;;;;;;5035497;28;20021;-60
2023/08/28 01:54:45;;;;;;;8.82;4.22;;;12.00;99.90;;;;;;5039217;28;20483;-58
2023/08/28 01:57:10;;;;;;;8.73;3.97;;;12.00;99.90;;;;;;5036204;28;20142;-59
2023/08/28 01:59:36;;;;;;;4.85;4.43;;;11.90;99.90;;;;;;5045857;28;20017;-59
2023/08/28 02:02:01;;;;;;;5.95;4.63;;;11.90;99.90;;;;;;5039714;28;20033;-57
2023/08/28 02:04:27;;;;;;;8.20;4.75;;;11.90;99.90;;;;;;5032786;28;20037;-59
2023/08/28 02:06:52;;;;;;;8.10;4.93;;;11.90;99.90;;;;;;5040161;28;20613;-57
2023/08/28 02:09:18;;;;;;;6.63;4.10;;;11.80;99.90;;;;;;5039844;28;20526;-58
2023/08/28 02:11:43;;;;;;;11.60;4.80;;;11.90;99.90;;;;;;5030817;28;20026;-57
2023/08/28 02:14:09;;;;;;;9.90;5.05;;;11.80;99.90;;;;;;5035345;28;21893;-57
2023/08/28 02:16:38;;;;;;;6.20;4.63;;;11.80;99.90;;;;;;5031305;28;20036;-58
2023/08/28 02:19:04;;;;;;;10.10;5.03;;;11.80;99.90;;;;;;5039168;28;20033;-57
2023/08/28 02:21:30;;;;;;;5.47;4.30;;;11.80;99.90;;;;;;5034634;28;20030;-58
2023/08/28 02:23:55;;;;;;;7.38;4.55;;;11.80;99.90;;;;;;5042609;28;20039;-57
2023/08/28 02:26:21;;;;;;;7.60;4.80;;;11.80;99.90;;;;;;5029440;28;20025;-57
2023/08/28 02:28:46;;;;;;;11.10;5.20;;;11.80;99.90;;;;;;5037053;28;20034;-54
2023/08/28 02:31:12;;;;;;;6.75;5.20;;;11.70;99.90;;;;;;5041194;28;20071;-55
2023/08/28 02:33:37;;;;;;;8.65;4.63;;;11.70;99.90;;;;;;5045010;28;20029;-58
2023/08/28 02:36:03;;;;;;;9.50;4.53;;;11.70;99.90;;;;;;5032873;28;20128;-56
2023/08/28 02:38:29;;;;;;;7.93;4.65;;;11.70;99.90;;;;;;5038788;28;20139;-57
2023/08/28 02:41:03;;;;;;;5.40;4.82;;;11.60;99.90;;;;;;5039796;28;20029;-58
2023/08/28 02:43:28;;;;;;;7.55;4.30;;;11.60;99.90;;;;;;5023425;28;20060;-60
2023/08/28 02:45:54;;;;;;;8.93;3.95;;;11.50;99.90;;;;;;5029027;28;20025;-61
2023/08/28 02:48:19;;;;;;;7.22;4.55;;;11.50;99.90;;;;;;5036749;28;20021;-59
2023/08/28 02:50:49;;;;;;;10.30;4.30;;;11.50;99.90;;;;;;5028636;28;20024;-57
2023/08/28 02:53:14;;;;;;;5.65;4.70;;;11.60;99.90;;;;;;5038726;28;20394;-59
2023/08/28 02:55:41;;;;;;;11.18;4.57;;;11.50;99.90;;;;;;5036625;28;20108;-57
2023/08/28 02:58:07;;;;;;;8.50;4.28;;;11.60;99.90;;;;;;5039778;28;20106;-60
2023/08/28 03:00:35;;;;;;;7.97;4.10;;;11.60;99.90;;;;;;5036338;28;20083;-57
2023/08/28 03:03:00;;;;;;;6.65;4.20;;;11.60;99.90;;;;;;5042855;28;20029;-59
2023/08/28 03:05:26;;;;;;;6.60;4.30;;;11.60;99.90;;;;;;5028310;28;20048;-59
2023/08/28 03:07:52;;;;;;;6.97;4.70;;;11.60;99.90;;;;;;5019238;28;20100;-59
2023/08/28 03:10:17;;;;;;;7.57;4.35;;;11.60;99.90;;;;;;5039747;28;20124;-58
2023/08/28 03:12:43;;;;;;;6.65;3.95;;;11.60;99.90;;;;;;5038248;28;20544;-58
2023/08/28 03:15:09;;;;;;;5.72;4.22;;;11.60;99.90;;;;;;5037524;28;21221;-59
2023/08/28 03:17:34;;;;;;;12.23;4.75;;;11.60;99.90;;;;;;5036998;28;20037;-58
2023/08/28 03:20:00;;;;;;;9.00;4.75;;;11.60;99.90;;;;;;5037475;28;20057;-61
2023/08/28 03:22:25;;;;;;;7.70;4.95;;;11.70;99.90;;;;;;5035708;28;21934;-61
2023/08/28 03:24:52;;;;;;;5.88;4.22;;;11.70;99.90;;;;;;5032212;28;20060;-58
2023/08/28 03:27:19;;;;;;;9.43;4.90;;;11.70;99.90;;;;;;5045301;28;20040;-59
2023/08/28 03:29:44;;;;;;;6.82;5.03;;;11.70;99.90;;;;;;5040805;28;20028;-58
2023/08/28 03:32:10;;;;;;;6.13;4.80;;;11.80;99.90;;;;;;5034581;28;20025;-57
2023/08/28 03:34:35;;;;;;;7.32;4.28;;;11.80;99.90;;;;;;5039646;28;20521;-59
2023/08/28 03:37:01;;;;;;;6.82;4.35;;;11.80;99.90;;;;;;5032767;28;20046;-59
2023/08/28 03:39:26;;;;;;;6.38;4.13;;;11.70;99.90;;;;;;5038180;28;20087;-59
2023/08/28 03:41:52;;;;;;;5.05;3.90;;;11.70;99.90;;;;;;5046166;28;20029;-58
2023/08/28 03:44:17;;;;;;;10.52;3.88;;;11.60;99.90;;;;;;5046201;28;20045;-57
2023/08/28 03:46:43;;;;;;;5.95;3.97;;;11.70;99.90;;;;;;5038533;28;20037;-58
2023/08/28 03:49:09;;;;;;;7.85;4.43;;;11.70;99.90;;;;;;5046489;28;20029;-58
2023/08/28 03:51:34;;;;;;;10.98;4.18;;;11.60;99.90;;;;;;5039068;28;20021;-59
2023/08/28 03:54:02;;;;;;;10.77;5.10;;;11.60;99.90;;;;;;5043368;28;20033;-61
2023/08/28 03:56:29;;;;;;;8.63;4.35;;;11.50;99.90;;;;;;5040245;28;20084;-59
2023/08/28 03:58:55;;;;;;;6.38;4.72;;;11.50;99.90;;;;;;5036583;28;20053;-56
2023/08/28 04:01:21;;;;;;;10.15;4.78;;;11.50;99.90;;;;;;5045236;28;20053;-58
2023/08/28 04:03:47;;;;;;;7.05;5.78;;;11.50;99.90;;;;;;5040122;28;20134;-59
2023/08/28 04:06:12;;;;;;;10.02;4.55;;;11.40;99.90;;;;;;5048788;28;20145;-56
2023/08/28 04:08:38;;;;;;;8.18;5.20;;;11.40;99.90;;;;;;5036524;28;20029;-57
2023/08/28 04:11:03;;;;;;;8.13;4.82;;;11.30;99.90;;;;;;5038930;28;20573;-57
2023/08/28 04:13:29;;;;;;;5.47;4.30;;;11.30;99.90;;;;;;5047246;28;20415;-59
2023/08/28 04:15:55;;;;;;;7.57;4.60;;;11.30;99.90;;;;;;5033069;28;21503;-59
2023/08/28 04:18:20;;;;;;;8.10;4.60;;;11.30;99.90;;;;;;5039888;28;21025;-60
2023/08/28 04:20:46;;;;;;;7.32;4.78;;;11.30;99.90;;;;;;5034143;28;20034;-60
2023/08/28 04:23:13;;;;;;;7.35;4.80;;;11.30;99.90;;;;;;5045390;28;20418;-55
2023/08/28 04:25:38;;;;;;;7.70;4.47;;;11.20;99.90;;;;;;5035942;28;20028;-58
2023/08/28 04:28:04;;;;;;;5.28;4.35;;;11.30;99.90;;;;;;5043244;28;20100;-57
2023/08/28 04:30:29;;;;;;;9.75;4.82;;;11.30;99.90;;;;;;5042833;28;20036;-58
2023/08/28 04:32:55;;;;;;;9.82;5.35;;;11.30;99.90;;;;;;5035477;28;20037;-59
2023/08/28 04:35:21;;;;;;;5.63;4.40;;;11.30;99.90;;;;;;5043440;28;20032;-59
2023/08/28 04:37:46;;;;;;;12.77;5.05;;;11.30;99.90;;;;;;5031914;28;20033;-60
2023/08/28 04:40:12;;;;;;;8.77;5.05;;;11.40;99.90;;;;;;5044630;28;20549;-58
2023/08/28 04:42:37;;;;;;;5.85;4.90;;;11.40;99.90;;;;;;5039500;28;20087;-57
2023/08/28 04:45:04;;;;;;;9.75;5.53;;;11.40;99.90;;;;;;5046858;28;20459;-61
2023/08/28 04:47:29;;;;;;;8.77;5.35;;;11.30;99.90;;;;;;5034303;28;20087;-60
2023/08/28 04:49:55;;;;;;;6.50;4.93;;;11.30;99.90;;;;;;5026382;28;20025;-60
2023/08/28 04:52:22;;;;;;;8.75;5.32;;;11.40;99.90;;;;;;5020265;28;20442;-61
2023/08/28 04:54:47;;;;;;;8.85;5.13;;;11.40;99.90;;;;;;5034949;28;20025;-58
2023/08/28 04:57:13;;;;;;;11.98;5.22;;;11.40;99.90;;;;;;5040627;28;20044;-58
2023/08/28 04:59:39;;;;;;;7.45;5.78;;;11.40;99.90;;;;;;5039426;28;20112;-61
2023/08/28 05:02:05;;;;;;;8.50;5.85;;;11.50;99.90;;;;;;5030216;28;20032;-59
2023/08/28 05:04:31;;;;;;;7.10;5.35;;;11.40;99.90;;;;;;5040708;28;20040;-57
2023/08/28 05:06:56;;;;;;;8.73;6.38;;;11.50;99.90;;;;;;5031669;28;20112;-59
2023/08/28 05:09:22;;;;;;;6.65;5.40;;;11.50;99.90;;;;;;5041473;28;20096;-55
2023/08/28 05:11:47;;;;;;;10.50;5.65;;;11.50;99.90;;;;;;5036482;28;20021;-60
2023/08/28 05:14:13;;;;;;;9.43;6.60;;;11.50;99.90;;;;;;5037624;28;20663;-56
2023/08/28 05:16:39;;;;;;;9.82;7.05;;;11.50;99.90;;;;;;5032621;28;20395;-59
2023/08/28 05:19:04;;;;;;;8.48;6.40;;;11.50;99.90;;;;;;5038778;28;20037;-55
2023/08/28 05:21:30;;;;;;;11.23;5.97;;;11.50;99.90;;;;;;5042680;28;20038;-57
2023/08/28 05:23:55;;;;;;;10.82;6.53;;;11.50;99.90;;;;;;5043193;28;20084;-57
2023/08/28 05:26:21;;;;;;;12.90;6.50;;;11.60;99.90;;;;;;5036584;28;20025;-57
2023/08/28 05:28:47;;;;;;;10.15;6.80;;;11.60;99.90;;;;;;5040559;28;20029;-56
2023/08/28 05:31:12;;;;;;;14.15;6.30;;;11.70;99.90;;;;;;5034851;28;20021;-57
2023/08/28 05:33:38;;;;;;;8.95;6.05;;;11.80;99.90;;;;;;5033423;28;20137;-56
2023/08/28 05:36:03;;;;;;;8.20;5.40;;;11.80;99.90;;;;;;5037459;28;20395;-56
2023/08/28 05:38:30;;;;;;;16.05;7.07;;;11.90;99.90;;;;;;5032028;28;20381;-56
2023/08/28 05:40:55;;;;;;;13.70;6.68;;;11.90;99.90;;;;;;5035344;28;20055;-59
2023/08/28 05:43:21;;;;;;;9.45;6.38;;;12.00;99.90;;;;;;5042265;28;20099;-60
2023/08/28 05:45:47;;;;;;;10.45;6.07;;;12.00;99.90;;;;;;5036228;28;20183;-59
2023/08/28 05:48:13;;;;;;;8.82;6.20;;;12.10;99.90;;;;;;5042446;28;20100;-58
2023/08/28 05:50:39;;;;;;;7.97;6.03;;;12.10;99.90;;;;;;5034901;28;20013;-59
2023/08/28 05:53:06;;;;;;;7.45;5.80;;;12.10;99.90;;;;;;5046705;28;20027;-59
2023/08/28 05:55:32;;;;;;;10.75;5.68;;;12.20;99.90;;;;;;5043901;28;20026;-60
2023/08/28 05:57:58;;;;;;;12.10;6.72;;;12.20;99.90;;;;;;5037291;28;20044;-59
2023/08/28 06:00:23;;;;;;;7.57;6.00;;;12.20;99.90;;;;;;5037049;28;20083;-60
2023/08/28 06:02:49;;;;;;;16.38;6.68;;;12.30;99.90;;;;;;5041056;28;20398;-59
2023/08/28 06:05:14;;;;;;;11.45;6.50;;;12.30;99.90;;;;;;5033971;28;20405;-62
2023/08/28 06:07:40;;;;;;;11.05;7.03;;;12.30;99.90;;;;;;5038928;28;20488;-59
2023/08/28 06:10:07;;;;;;;17.65;7.25;;;12.40;99.90;;;;;;5043025;28;20018;-59
2023/08/28 06:12:34;;;;;;;10.98;6.05;;;12.40;99.90;;;;;;5037393;28;20048;-62
2023/08/28 06:14:59;;;;;;;8.73;5.63;;;12.50;99.90;;;;;;5035900;28;20031;-60
2023/08/28 06:17:25;;;;;;;8.45;5.20;;;12.50;99.90;;;;;;5036443;28;20116;-60
2023/08/28 06:19:50;;;;;;;12.05;6.63;;;12.60;99.90;;;;;;5037888;28;20126;-57
2023/08/28 06:22:16;;;;;;;11.48;5.95;;;12.70;99.90;;;;;;5034316;28;20057;-61
2023/08/28 06:24:42;;;;;;;7.72;5.70;;;12.70;99.90;;;;;;5035304;28;20029;-59
2023/08/28 06:27:07;;;;;;;7.60;5.88;;;12.80;99.90;;;;;;5035956;28;20109;-59
2023/08/28 06:29:33;;;;;;;12.15;6.32;;;12.80;99.90;;;;;;5022370;28;20103;-59
2023/08/28 06:31:58;;;;;;;12.27;6.65;;;12.90;99.90;;;;;;5040348;28;20021;-61
2023/08/28 06:34:24;;;;;;;11.32;6.75;;;13.00;99.90;;;;;;5045383;28;20499;-61
2023/08/28 06:36:51;;;;;;;10.10;6.93;;;13.10;99.90;;;;;;5033154;28;20025;-60
2023/08/28 06:39:18;;;;;;;11.93;6.93;;;13.10;99.90;;;;;;5039685;28;20036;-61
2023/08/28 06:41:43;;;;;;;11.82;6.25;;;13.20;99.90;;;;;;5025817;28;20038;-58
2023/08/28 06:44:09;;;;;;;10.38;6.72;;;13.20;99.90;;;;;;5035665;28;20025;-58
2023/08/28 06:46:36;;;;;;;12.82;6.00;;;13.30;99.90;;;;;;5028700;28;20432;-55
2023/08/28 06:49:02;;;;;;;11.82;6.78;;;13.40;99.90;;;;;;5037352;28;20044;-61
2023/08/28 06:51:28;;;;;;;11.18;7.00;;;13.50;99.90;;;;;;5036142;28;20049;-59
2023/08/28 06:53:54;;;;;;;19.55;6.80;;;13.50;99.90;;;;;;5038891;28;20136;-58
2023/08/28 06:56:19;;;;;;;10.77;5.47;;;13.60;99.90;;;;;;5034183;28;20041;-58
2023/08/28 06:58:45;;;;;;;9.75;5.88;;;13.60;99.90;;;;;;5034791;28;20038;-60
2023/08/28 07:01:12;;;;;;;13.15;5.97;;;13.60;99.90;;;;;;5034203;28;20029;-60
2023/08/28 07:03:38;;;;;;;12.40;5.63;;;13.70;99.90;;;;;;5036955;28;20036;-59
2023/08/28 07:06:03;;;;;;;10.75;5.50;;;13.70;99.90;;;;;;5035482;28;20037;-59
2023/08/28 07:08:29;;;;;;;10.32;5.30;;;13.80;99.90;;;;;;5040768;28;20032;-58
2023/08/28 07:10:54;;;;;;;10.45;5.60;;;13.80;99.90;;;;;;5040491;28;20025;-58
2023/08/28 07:13:20;;;;;;;11.77;5.60;;;13.90;99.90;;;;;;5035051;28;20044;-58
2023/08/28 07:15:45;;;;;;;12.93;5.65;;;14.00;99.90;;;;;;5037803;28;20033;-61
2023/08/28 07:18:11;;;;;;;14.23;6.35;;;14.00;99.90;;;;;;5038813;28;20120;-58
2023/08/28 07:20:36;;;;;;;16.60;6.75;;;14.10;99.90;;;;;;5040336;28;20079;-56
2023/08/28 07:23:03;;;;;;;12.40;5.47;;;14.20;99.90;;;;;;5041011;28;20071;-58
2023/08/28 07:25:28;;;;;;;11.10;6.00;;;14.20;99.90;;;;;;5043198;28;20120;-57
2023/08/28 07:27:54;;;;;;;18.50;6.13;;;14.30;99.90;;;;;;5038175;28;20104;-61
2023/08/28 07:30:20;;;;;;;16.00;5.75;;;14.30;99.90;;;;;;5034632;28;20032;-59
2023/08/28 07:32:46;;;;;;;11.07;5.40;;;14.40;99.90;;;;;;5046329;28;20128;-59
2023/08/28 07:35:12;;;;;;;16.75;4.95;;;14.40;99.90;;;;;;5042578;28;20457;-57
2023/08/28 07:37:38;;;;;;;11.27;5.28;;;14.50;99.90;;;;;;5042795;28;20026;-58
2023/08/28 07:40:05;;;;;;;11.52;4.57;;;14.60;99.90;;;;;;5037676;28;20035;-57
2023/08/28 07:42:31;;;;;;;10.63;4.65;;;14.60;99.90;;;;;;5041228;28;20037;-59
2023/08/28 07:44:57;;;;;;;10.07;5.05;;;14.70;99.90;;;;;;5029589;28;20030;-60
2023/08/28 07:47:22;;;;;;;15.25;5.00;;;14.80;99.90;;;;;;5027908;28;20076;-59
2023/08/28 07:49:48;;;;;;;11.27;5.13;;;14.90;99.90;;;;;;5035279;28;20064;-58
2023/08/28 07:52:14;;;;;;;8.35;4.40;;;15.00;99.90;;;;;;5042155;28;20031;-59
2023/08/28 07:54:40;;;;;;;10.85;4.68;;;15.20;99.90;;;;;;5041090;28;20033;-58
2023/08/28 07:57:05;;;;;;;13.57;5.13;;;15.30;99.90;;;;;;5041910;28;20055;-60
2023/08/28 07:59:31;;;;;;;8.20;4.43;;;15.40;99.90;;;;;;5053102;28;20411;-62
2023/08/28 08:01:57;;;;;;;12.20;6.65;;;15.40;99.90;;;;;;5045133;28;20029;-59
2023/08/28 08:04:24;;;;;;;8.88;4.28;;;15.50;99.90;;;;;;5040138;28;20094;-59
2023/08/28 08:06:50;;;;;;;15.77;5.88;;;15.60;99.90;;;;;;5039108;28;20061;-54
2023/08/28 08:09:15;;;;;;;8.55;5.55;;;15.70;99.90;;;;;;5041585;28;20056;-59
2023/08/28 08:11:41;;;;;;;12.40;6.18;;;15.70;99.90;;;;;;5033622;28;20036;-60
2023/08/28 08:14:06;;;;;;;12.13;4.75;;;15.80;99.90;;;;;;5038438;28;20084;-59
2023/08/28 08:16:32;;;;;;;8.77;5.13;;;15.80;99.90;;;;;;5041474;28;20620;-59
2023/08/28 08:18:57;;;;;;;17.35;5.88;;;15.90;99.90;;;;;;5038945;28;20051;-60
2023/08/28 08:21:23;;;;;;;8.57;4.47;;;15.90;99.90;;;;;;5041519;28;20411;-60
2023/08/28 08:23:49;;;;;;;9.15;4.93;;;16.00;99.90;;;;;;5039723;28;20033;-58
2023/08/28 08:26:15;;;;;;;11.48;6.82;;;16.10;99.90;;;;;;5035473;28;20557;-58
2023/08/28 08:28:41;;;;;;;14.82;4.72;;;16.10;99.90;;;;;;5037148;28;20028;-56
2023/08/28 08:31:06;;;;;;;13.48;5.35;;;16.20;99.90;;;;;;5036426;28;20026;-57
2023/08/28 08:33:32;;;;;;;10.38;5.72;;;16.20;99.90;;;;;;5038238;28;20109;-62
2023/08/28 08:35:57;;;;;;;20.50;6.00;;;16.30;99.90;;;;;;5039014;28;20526;-60
2023/08/28 08:38:23;;;;;;;10.95;5.40;;;16.30;99.90;;;;;;5042348;28;20526;-59
2023/08/28 08:40:54;;;;;;;15.68;5.55;;;16.40;99.90;;;;;;5040749;28;20033;-57
2023/08/28 08:43:20;;;;;;;11.68;5.60;;;16.50;99.90;;;;;;5043275;28;20021;-60
2023/08/28 08:45:47;;;;;;;12.18;5.78;;;16.50;99.90;;;;;;5036165;28;20035;-60
2023/08/28 08:48:17;;;;;;;10.55;4.80;;;16.50;99.90;;;;;;5045376;28;20035;-61
2023/08/28 08:50:45;;;;;;;15.95;5.10;;;16.60;99.90;;;;;;5033130;28;20029;-59
2023/08/28 08:53:25;;;;;;;15.88;5.22;;;16.80;99.90;;;;;;5034368;28;20422;-59
2023/08/28 08:55:53;;;;;;;9.88;4.43;;;16.90;99.90;;;;;;5037592;28;20090;-61
2023/08/28 08:58:21;;;;;;;13.48;4.68;;;16.90;99.90;;;;;;5036067;28;20390;-59
2023/08/28 09:00:47;;;;;;;15.93;4.88;;;16.90;99.90;;;;;;5038269;28;20108;-62
2023/08/28 09:03:14;;;;;;;17.10;4.55;;;16.90;99.90;;;;;;5039871;28;20056;-60
2023/08/28 09:05:41;;;;;;;11.23;3.85;;;17.00;99.90;;;;;;5040684;28;20063;-59
2023/08/28 09:08:07;;;;;;;7.28;4.03;;;17.10;99.90;;;;;;5042434;28;20021;-60
2023/08/28 09:10:33;;;;;;;8.15;4.10;;;17.20;99.90;;;;;;5036792;28;20033;-59
2023/08/28 09:13:00;;;;;;;10.25;4.65;;;17.40;99.90;;;;;;5034489;28;20437;-61
2023/08/28 09:15:25;;;;;;;12.25;4.40;;;17.40;99.90;;;;;;5038247;28;20064;-58
2023/08/28 09:17:52;;;;;;;8.05;4.07;;;17.50;99.90;;;;;;5038894;28;20049;-58
2023/08/28 09:20:21;;;;;;;3.63;2.05;;;17.60;99.90;;;;;;5035964;28;20045;-62
2023/08/28 09:22:48;;;;;;;7.65;2.65;;;17.70;99.90;;;;;;5037953;28;20365;-59
2023/08/28 09:25:18;;;;;;;6.20;2.17;;;17.70;99.90;;;;;;5035673;28;20032;-61
2023/08/28 09:27:45;;;;;;;4.40;2.35;;;17.80;99.90;;;;;;5030027;28;20028;-60
2023/08/28 09:30:25;;;;;;;6.22;3.22;;;17.80;99.90;;;;;;5036882;28;20028;-59
2023/08/28 09:32:51;;;;;;;8.65;4.15;;;18.00;99.90;;;;;;5033880;28;20029;-60
2023/08/28 09:35:19;;;;;;;8.15;2.90;;;18.00;99.90;;;;;;5033952;28;20025;-60
2023/08/28 09:37:54;;;;;;;8.20;3.40;;;18.00;99.90;;;;;;5037788;28;20052;-59
2023/08/28 09:40:28;;;;;;;8.13;2.72;;;18.10;99.90;;;;;;5042762;28;20025;-59
2023/08/28 09:42:53;;;;;;;7.38;2.95;;;18.10;99.90;;;;;;5034401;28;20753;-57
2023/08/28 09:45:19;;;;;;;8.25;2.65;;;18.20;99.90;;;;;;5041432;28;20033;-59
2023/08/28 09:47:45;;;;;;;4.38;2.97;;;18.10;99.90;;;;;;5032866;28;20094;-61
2023/08/28 09:50:10;;;;;;;5.00;3.00;;;18.10;99.90;;;;;;5033965;28;20044;-56
2023/08/28 09:52:36;;;;;;;5.30;3.33;;;18.20;99.90;;;;;;5037640;28;20054;-61
2023/08/28 09:55:05;;;;;;;7.95;2.97;;;18.30;99.90;;;;;;5047223;28;20393;-60
2023/08/28 09:57:31;;;;;;;8.32;2.95;;;18.30;99.90;;;;;;5030221;28;20037;-58
2023/08/28 09:59:58;;;;;;;6.47;3.38;;;18.40;99.90;;;;;;5020463;28;20144;-59
2023/08/28 10:02:25;;;;;;;5.88;2.88;;;18.50;99.90;;;;;;5023572;28;20470;-62
2023/08/28 10:04:52;;;;;;;8.13;3.05;;;18.70;99.90;;;;;;5026070;28;20021;-60
2023/08/28 10:07:22;;;;;;;8.35;3.00;;;18.60;99.90;;;;;;5029990;28;20095;-61
2023/08/28 10:09:51;;;;;;;8.23;3.05;;;18.50;99.90;;;;;;5032897;28;20559;-58
2023/08/28 10:12:16;;;;;;;5.75;4.13;;;18.50;99.90;;;;;;5030496;28;20040;-59
2023/08/28 10:14:44;;;;;;;10.93;4.78;;;18.60;99.90;;;;;;5041257;28;20029;-59
2023/08/28 10:17:13;;;;;;;10.75;5.93;;;18.60;99.90;;;;;;5032780;28;20033;-61
2023/08/28 10:19:56;;;;;;;8.43;5.57;;;18.80;99.90;;;;;;5034952;28;20037;-62
2023/08/28 10:22:24;;;;;;;9.30;3.65;;;19.00;99.90;;;;;;5032892;28;20029;-62
2023/08/28 10:24:51;;;;;;;8.40;5.45;;;19.00;99.90;;;;;;5035601;28;20038;-59
2023/08/28 10:27:18;;;;;;;7.22;4.80;;;19.20;99.90;;;;;;5036084;28;20028;-60
2023/08/28 10:29:46;;;;;;;12.57;5.57;;;19.30;99.90;;;;;;5030714;28;20108;-60
2023/08/28 10:32:13;;;;;;;8.90;6.45;;;19.20;99.90;;;;;;5030289;28;20017;-58
2023/08/28 10:34:40;;;;;;;10.50;8.25;;;19.30;99.90;;;;;;5030236;28;20494;-60
2023/08/28 10:37:08;;;;;;;12.65;7.38;;;19.20;99.90;;;;;;5026067;28;20024;-57
2023/08/28 10:39:36;;;;;;;13.05;7.18;;;19.30;99.90;;;;;;5038885;28;20034;-56
2023/08/28 10:42:04;;;;;;;10.75;9.05;;;19.30;99.90;;;;;;5040308;28;20035;-57
2023/08/28 10:44:29;;;;;;;14.52;10.50;;;19.20;99.90;;;;;;5041891;28;20104;-61
2023/08/28 10:46:55;;;;;;;16.25;11.77;;;19.20;99.90;;;;;;5041563;28;20112;-57
2023/08/28 10:49:21;;;;;;;12.90;11.05;;;19.10;99.90;;;;;;5036746;28;20030;-57
2023/08/28 10:51:46;;;;;;;12.55;10.80;;;19.10;99.90;;;;;;5039485;28;20505;-58
2023/08/28 10:54:12;;;;;;;10.65;8.43;;;19.10;99.90;;;;;;5036206;28;20418;-60
2023/08/28 10:56:39;;;;;;;14.32;9.93;;;19.20;99.90;;;;;;5039803;28;20040;-59
2023/08/28 10:59:24;;;;;;;10.70;8.55;;;19.30;99.90;;;;;;5029079;28;20047;-61
2023/08/28 11:01:55;;;;;;;16.63;7.85;;;19.50;99.90;;;;;;5040013;28;20021;-58
2023/08/28 11:04:23;;;;;;;11.30;5.95;;;19.80;99.90;;;;;;5037130;28;20033;-59
2023/08/28 11:06:49;;;;;;;9.10;4.38;;;20.10;99.90;;;;;;5029816;28;20080;-58
2023/08/28 11:09:30;;;;;;;8.80;4.63;;;20.40;99.90;;;;;;5035844;28;20360;-58
2023/08/28 11:12:01;;;;;;;4.85;2.83;;;20.50;99.90;;;;;;5043707;28;20132;-58
2023/08/28 11:14:34;;;;;;;2.00;1.45;;;20.50;99.90;;;;;;5031529;28;20032;-55
2023/08/28 11:17:09;;;;;;;4.88;2.03;;;20.60;99.90;;;;;;5041534;28;20068;-56
2023/08/28 11:19:53;;;;;;;3.38;1.48;;;20.50;99.90;;;;;;5035290;28;20044;-55
2023/08/28 11:22:36;;;;;;;9.07;2.30;;;20.60;99.90;;;;;;5040600;28;20446;-56
2023/08/28 11:25:13;;;;;;;6.30;2.75;;;20.40;99.90;;;;;;5042262;28;20061;-60
2023/08/28 11:27:53;;;;;;;8.70;2.20;;;20.20;99.90;;;;;;5031729;28;20040;-58
2023/08/28 11:30:20;;;;;;;4.82;1.60;;;19.90;99.90;;;;;;5037429;28;20021;-58
2023/08/28 11:32:53;;;;;;;4.43;1.73;;;20.20;99.90;;;;;;5038626;28;20033;-60
2023/08/28 11:35:20;;;;;;;3.28;1.40;;;20.20;99.90;;;;;;5041806;28;20029;-59
2023/08/28 11:37:48;;;;;;;5.00;1.65;;;20.30;99.90;;;;;;5039682;28;20021;-58
2023/08/28 11:40:23;;;;;;;4.00;1.40;;;20.20;99.90;;;;;;5044282;28;20113;-59
2023/08/28 11:42:49;;;;;;;4.35;1.70;;;20.30;99.90;;;;;;5037477;28;20519;-61
2023/08/28 11:45:19;;;;;;;3.50;1.30;;;20.30;99.90;;;;;;5042150;28;20491;-60
2023/08/28 11:47:45;;;;;;;4.18;1.63;;;20.40;99.90;;;;;;5040027;28;20029;-58
2023/08/28 11:50:10;;;;;;;2.28;0.85;;;20.50;99.90;;;;;;5043841;28;20040;-58
2023/08/28 11:52:36;;;;;;;3.65;1.83;;;20.70;99.90;;;;;;5038815;28;20028;-57
2023/08/28 11:55:04;;;;;;;2.50;0.82;;;20.70;99.90;;;;;;5044771;28;20037;-59
2023/08/28 11:57:31;;;;;;;4.10;1.10;;;20.70;99.90;;;;;;5028838;28;20037;-61
2023/08/28 11:59:58;;;;;;;1.50;0.77;;;20.80;99.90;;;;;;5034595;28;20040;-58
2023/08/28 12:02:23;;;;;;;3.90;1.20;;;20.70;99.90;;;;;;5050067;28;20021;-59
2023/08/28 12:04:49;;;;;;;1.35;0.90;;;20.60;99.90;;;;;;5041959;28;20061;-58
2023/08/28 12:07:18;;;;;;;1.88;1.10;;;;;;;;;;5029297;28;20029;-57
2023/08/28 12:09:46;;;;;;;3.72;1.20;;;;;;;;;;5033110;28;20033;-58
2023/08/28 12:12:13;;;;;;;2.10;1.08;;;;;;;;;;5040697;28;20045;-55
2023/08/28 12:14:42;;;;;;;3.28;0.95;;;20.70;99.90;;;;;;5042568;28;20029;-60
2023/08/28 12:17:07;;;;;;;6.13;1.00;;;21.10;99.90;;;;;;5044260;28;20277;-57
2023/08/28 12:19:34;;;;;;;3.47;0.88;;;21.10;99.90;;;;;;5049248;28;20021;-58
2023/08/28 12:22:05;;;;;;;2.35;0.90;;;21.20;99.90;;;;;;5033946;28;20540;-60
2023/08/28 12:24:31;;;;;;;1.60;0.80;;;;;;;;;;5031754;28;20594;-59
2023/08/28 12:26:57;;;;;;;1.60;0.80;;;21.10;99.90;;;;;;5045363;28;20022;-57
2023/08/28 12:29:26;;;;;;;1.85;0.80;;;21.00;99.90;;;;;;5029091;28;20026;-58
2023/08/28 12:31:51;;;;;;;2.45;0.93;;;21.10;99.90;;;;;;5040737;28;20502;-57
2023/08/28 12:34:18;;;;;;;4.93;0.98;;;21.10;99.90;;;;;;5037448;28;20025;-59
2023/08/28 12:36:45;;;;;;;1.35;0.90;;;21.20;99.90;;;;;;5042954;28;20079;-59
2023/08/28 12:39:15;;;;;;;1.33;1.10;;;21.30;99.90;;;;;;5043080;28;20037;-54
2023/08/28 12:41:56;;;;;;;3.13;0.98;;;21.30;99.90;;;;;;5042408;28;20422;-57
2023/08/28 12:44:22;;;;;;;4.93;1.10;;;21.50;99.90;;;;;;5038598;28;20514;-58